Time;durP1;ratioP1;P1;durP2;ratioP2;P2;SDS_P1;SDS_P2;PMS_P1;PMS_P2;Temp;Humidity;BMP_temperature;BMP_pressure;BME280_temperature;BME280_humidity;BME280_pressure;Samples;Min_cycle;Max_cycle;Signal;HPM_P1;HPM_P2
2022/06/27 00:00:00;;;;;;;1.50;1.27;;;17.30;99.90;;;17.20;83.83;97333.78;5045728;28;20041;-46
2022/06/27 00:02:39;;;;;;;1.20;1.10;;;17.20;99.90;;;17.23;83.32;97324.44;5050309;28;20064;-44
2022/06/27 00:05:10;;;;;;;3.25;1.13;;;17.20;99.90;;;17.23;82.64;97329.84;5045227;28;20072;-44
2022/06/27 00:07:39;;;;;;;2.30;1.65;;;17.20;99.90;;;17.01;84.03;97343.53;5045408;28;20041;-44
2022/06/27 00:10:09;;;;;;;1.17;1.08;;;17.00;99.90;;;16.93;84.07;97381.41;5045260;28;20052;-47
2022/06/27 00:12:39;;;;;;;0.90;0.82;;;17.00;99.90;;;16.71;84.25;97378.06;5044859;28;20049;-46
2022/06/27 00:15:10;;;;;;;1.30;0.90;;;16.90;99.90;;;16.80;83.92;97392.94;5045119;28;20043;-45
2022/06/27 00:17:39;;;;;;;1.00;0.82;;;17.00;99.90;;;16.65;85.05;97395.88;5045065;28;20051;-46
2022/06/27 00:20:08;;;;;;;1.63;1.10;;;16.90;99.90;;;16.71;84.15;97408.47;5045424;28;20265;-45
2022/06/27 00:22:37;;;;;;;3.03;1.23;;;16.90;99.90;;;16.78;84.72;97429.97;5045105;28;20053;-45
2022/06/27 00:25:07;;;;;;;3.38;1.10;;;16.90;99.90;;;16.66;85.35;97456.63;5045230;28;20057;-46
2022/06/27 00:27:35;;;;;;;2.08;1.20;;;16.90;99.90;;;16.78;86.01;97483.72;5043863;28;20053;-45
2022/06/27 00:30:05;;;;;;;1.98;0.85;;;16.90;99.90;;;16.77;86.35;97490.16;5044834;28;20057;-46
2022/06/27 00:32:33;;;;;;;1.85;0.90;;;16.90;99.90;;;16.83;85.99;97528.88;5044335;28;20051;-47
2022/06/27 00:35:02;;;;;;;3.13;1.35;;;16.90;99.90;;;16.98;84.39;97569.00;5044793;28;20053;-44
2022/06/27 00:37:30;;;;;;;2.38;1.33;;;17.10;99.90;;;17.05;84.95;97623.63;5044527;28;20060;-45
2022/06/27 00:39:58;;;;;;;2.72;1.42;;;17.20;99.90;;;17.12;84.98;97671.03;5043750;28;20124;-44
2022/06/27 00:42:26;;;;;;;2.30;1.85;;;17.30;99.90;;;17.17;85.34;97678.50;5044931;28;20049;-47
2022/06/27 00:44:54;;;;;;;2.15;1.10;;;17.30;99.90;;;17.28;84.57;97675.22;5043163;28;20132;-47
2022/06/27 00:47:22;;;;;;;2.33;1.58;;;17.40;99.90;;;17.34;84.52;97659.31;5044596;28;20049;-46
2022/06/27 00:49:52;;;;;;;6.40;1.80;;;17.40;99.90;;;17.32;84.16;97640.66;5043925;28;20091;-46
2022/06/27 00:52:20;;;;;;;4.03;1.83;;;17.30;99.90;;;17.12;84.32;97611.88;5044565;28;20129;-45
2022/06/27 00:54:48;;;;;;;2.33;1.40;;;17.00;99.90;;;17.06;84.32;97596.56;5044744;28;20240;-47
2022/06/27 00:57:18;;;;;;;2.42;1.25;;;17.00;99.90;;;17.09;84.60;97558.47;5043481;28;20160;-47
2022/06/27 00:59:46;;;;;;;1.25;1.10;;;17.00;99.90;;;17.10;84.17;97560.13;5044341;28;20051;-44
2022/06/27 01:02:14;;;;;;;3.42;1.50;;;17.00;99.90;;;17.28;83.84;97547.94;5044555;28;20216;-47
2022/06/27 01:04:42;;;;;;;2.90;1.10;;;17.20;99.90;;;17.37;83.09;97541.34;5043256;28;20053;-45
2022/06/27 01:07:10;;;;;;;1.27;0.90;;;17.20;99.90;;;17.37;83.06;97552.09;5044515;28;20240;-50
2022/06/27 01:09:43;;;;;;;1.50;1.20;;;17.30;99.90;;;17.35;83.66;97539.88;5043551;28;20049;-45
2022/06/27 01:12:12;;;;;;;2.72;1.30;;;17.20;99.90;;;17.32;84.39;97522.28;5043083;28;20045;-48
2022/06/27 01:14:40;;;;;;;2.15;1.15;;;17.20;99.90;;;17.31;84.23;97443.44;5044003;28;20275;-46
2022/06/27 01:17:11;;;;;;;4.93;1.20;;;17.20;99.90;;;17.28;84.04;97435.78;5044235;28;20041;-46
2022/06/27 01:19:40;;;;;;;3.53;1.50;;;17.20;99.90;;;17.39;83.62;97360.81;5043432;28;20243;-46
2022/06/27 01:22:10;;;;;;;3.00;2.08;;;17.30;99.90;;;17.53;83.79;97351.69;5042823;28;20344;-48
2022/06/27 01:24:39;;;;;;;3.53;1.40;;;17.50;99.90;;;17.62;83.62;97358.50;5059699;28;20064;-46
2022/06/27 01:27:08;;;;;;;1.55;1.02;;;17.60;99.90;;;17.64;83.98;97374.41;5042392;28;20262;-46
2022/06/27 01:29:36;;;;;;;1.20;1.10;;;17.70;99.90;;;17.68;83.74;97387.25;5042825;28;20057;-47
2022/06/27 01:32:06;;;;;;;1.55;1.10;;;17.70;99.90;;;17.68;83.62;97379.16;5026741;28;20050;-45
2022/06/27 01:34:35;;;;;;;3.60;1.88;;;17.80;99.90;;;17.75;83.44;97387.22;5042440;28;20049;-48
2022/06/27 01:37:05;;;;;;;2.50;1.20;;;17.80;99.90;;;17.81;83.23;97389.03;5042863;28;20063;-45
2022/06/27 01:39:38;;;;;;;2.80;1.50;;;17.80;99.90;;;17.87;82.83;97380.16;5042630;28;20049;-45
2022/06/27 01:42:07;;;;;;;1.63;1.20;;;17.80;99.90;;;17.93;82.44;97369.56;5042199;28;20079;-45
2022/06/27 01:44:35;;;;;;;1.42;1.10;;;17.80;99.90;;;17.97;82.32;97351.91;5042486;28;20055;-45
2022/06/27 01:47:08;;;;;;;1.88;1.48;;;17.80;99.90;;;17.97;82.31;97343.84;5042144;28;20373;-46
2022/06/27 01:49:44;;;;;;;2.70;1.27;;;17.80;99.90;;;17.99;81.90;97366.00;5058652;28;20049;-48
2022/06/27 01:52:14;;;;;;;1.35;1.25;;;17.80;99.90;;;18.00;81.80;97371.19;5041830;28;20057;-48
2022/06/27 01:54:43;;;;;;;2.88;1.10;;;17.80;99.90;;;18.02;81.91;97390.63;5059341;28;20052;-49
2022/06/27 01:57:16;;;;;;;2.35;1.10;;;17.90;99.90;;;18.04;81.95;97401.19;5042108;28;20052;-47
2022/06/27 01:59:46;;;;;;;2.45;1.17;;;17.90;99.90;;;18.07;81.86;97403.47;5059074;28;20247;-45
2022/06/27 02:02:15;;;;;;;1.63;1.23;;;17.90;99.90;;;18.07;81.85;97409.69;5042219;28;20356;-46
2022/06/27 02:04:46;;;;;;;2.40;1.38;;;17.90;99.90;;;18.09;81.79;97417.56;5043186;28;20232;-46
2022/06/27 02:07:16;;;;;;;1.95;0.80;;;17.90;99.90;;;18.08;81.69;97407.81;5058536;28;20343;-48
2022/06/27 02:09:45;;;;;;;1.27;1.00;;;17.90;99.90;;;18.10;81.69;97411.94;5042805;28;20359;-47
2022/06/27 02:12:18;;;;;;;2.47;1.60;;;17.90;99.90;;;18.11;81.67;97412.78;5042049;28;20051;-46
2022/06/27 02:14:50;;;;;;;1.27;1.00;;;17.90;99.90;;;18.00;81.86;97398.09;5042343;28;20370;-46
2022/06/27 02:17:23;;;;;;;2.25;1.08;;;17.90;99.90;;;17.98;81.99;97408.28;5058211;28;20049;-46
2022/06/27 02:19:52;;;;;;;1.75;1.13;;;17.80;99.90;;;17.97;81.70;97421.94;5058956;28;20050;-48
2022/06/27 02:22:19;;;;;;;3.22;1.45;;;17.80;99.90;;;17.94;81.74;97419.69;5042009;28;20055;-47
2022/06/27 02:24:47;;;;;;;1.65;1.30;;;17.70;99.90;;;17.89;82.06;97415.78;5058805;28;20055;-46
2022/06/27 02:27:17;;;;;;;2.10;1.50;;;17.80;99.90;;;17.93;81.75;97421.53;5042082;28;20050;-47
2022/06/27 02:29:45;;;;;;;2.00;1.38;;;17.80;99.90;;;17.92;81.59;97419.91;5041603;28;20052;-47
2022/06/27 02:32:13;;;;;;;2.40;1.10;;;17.70;99.90;;;17.94;81.81;97422.38;5058040;28;20067;-47
2022/06/27 02:34:42;;;;;;;3.42;1.85;;;17.80;99.90;;;17.95;81.71;97421.34;5042599;28;20051;-47
2022/06/27 02:37:12;;;;;;;1.98;1.00;;;17.80;99.90;;;17.94;81.71;97430.47;5041675;28;20346;-48
2022/06/27 02:39:43;;;;;;;1.95;1.25;;;17.70;99.90;;;17.95;81.50;97421.34;5042267;28;20057;-45
2022/06/27 02:42:13;;;;;;;1.98;1.60;;;17.70;99.90;;;17.97;81.49;97421.94;5042747;28;20108;-45
2022/06/27 02:44:42;;;;;;;3.30;1.35;;;17.70;99.90;;;17.97;81.49;97401.25;5041045;28;20059;-49
2022/06/27 02:47:11;;;;;;;2.17;1.77;;;17.80;99.90;;;17.95;81.60;97394.41;5041494;28;20055;-49
2022/06/27 02:49:39;;;;;;;3.30;1.20;;;17.70;99.90;;;17.95;81.48;97384.47;5041187;28;20049;-46
2022/06/27 02:52:26;;;;;;;2.30;1.33;;;17.70;99.90;;;17.98;81.27;97381.34;5040947;28;20052;-46
2022/06/27 02:55:13;;;;;;;3.38;1.40;;;17.70;99.90;;;18.03;81.41;97389.59;5057955;28;20060;-47
2022/06/27 02:58:02;;;;;;;2.45;1.55;;;17.80;99.90;;;18.02;81.21;97392.50;5041105;28;20061;-46
2022/06/27 03:00:32;;;;;;;2.45;1.50;;;17.80;99.90;;;17.99;81.08;97380.31;5041291;28;20250;-49
2022/06/27 03:03:04;;;;;;;2.88;1.70;;;17.70;99.90;;;17.96;81.16;97363.75;5025641;28;20079;-48
2022/06/27 03:06:06;;;;;;;2.53;1.42;;;17.70;99.90;;;17.90;80.95;97377.03;5040527;28;20057;-46
2022/06/27 03:08:46;;;;;;;4.53;1.52;;;17.60;99.90;;;17.92;81.01;97395.66;5024500;28;20266;-46
2022/06/27 03:11:18;;;;;;;2.30;1.38;;;17.60;99.90;;;17.90;80.93;97387.78;5023652;28;20053;-47
2022/06/27 03:13:49;;;;;;;2.30;1.38;;;17.60;99.90;;;17.92;80.83;97381.38;5041191;28;20048;-47
2022/06/27 03:16:19;;;;;;;3.42;1.55;;;17.60;99.90;;;17.93;80.80;97380.31;5041537;28;20056;-46
2022/06/27 03:18:49;;;;;;;2.28;1.77;;;17.60;99.90;;;17.96;80.86;97383.41;5057608;28;20377;-51
2022/06/27 03:21:32;;;;;;;1.95;1.63;;;17.60;99.90;;;17.99;80.41;97387.53;5046235;28;20044;-47
2022/06/27 03:24:02;;;;;;;5.55;1.75;;;17.60;99.90;;;18.01;80.47;97389.00;5041490;28;20049;-48
2022/06/27 03:26:31;;;;;;;1.90;1.38;;;17.60;99.90;;;18.03;80.32;97380.69;5042106;28;20284;-49
2022/06/27 03:28:59;;;;;;;2.75;1.23;;;17.60;99.90;;;18.06;79.87;97351.44;5040588;28;20052;-46
2022/06/27 03:31:27;;;;;;;2.88;1.70;;;17.70;99.90;;;18.12;79.75;97351.63;5041575;28;20252;-49
2022/06/27 03:33:56;;;;;;;2.60;1.20;;;17.70;99.90;;;18.14;79.80;97358.44;5041347;28;20052;-47
2022/06/27 03:36:32;;;;;;;2.95;1.33;;;17.70;99.90;;;18.16;79.68;97372.53;5040918;28;20057;-46
2022/06/27 03:39:01;;;;;;;3.30;1.60;;;17.70;99.90;;;18.18;79.66;97389.31;5056557;28;20052;-48
2022/06/27 03:41:29;;;;;;;1.60;1.50;;;17.70;99.90;;;18.22;79.76;97397.78;5040434;28;20052;-47
2022/06/27 03:43:58;;;;;;;1.60;1.13;;;17.70;99.90;;;18.25;79.34;97402.75;5056743;28;20221;-47
2022/06/27 03:46:26;;;;;;;2.22;1.40;;;17.80;99.90;;;18.27;79.31;97395.28;5040457;28;20357;-46
2022/06/27 03:51:56;;;;;;;3.47;1.33;;;17.90;99.90;;;18.33;79.10;97399.78;5057971;28;20057;-51
2022/06/27 03:54:24;;;;;;;5.43;1.52;;;17.90;99.90;;;18.36;78.84;97390.44;5057153;28;20060;-49
2022/06/27 03:56:53;;;;;;;3.38;1.40;;;18.00;99.90;;;18.41;78.84;97369.88;5041323;28;20053;-50
2022/06/27 03:59:22;;;;;;;1.52;1.27;;;18.10;99.90;;;18.48;78.57;97343.72;5040775;28;20052;-49
2022/06/27 04:01:49;;;;;;;2.03;1.23;;;18.20;99.90;;;18.55;78.54;97342.84;5041908;28;20056;-48
2022/06/27 04:04:17;;;;;;;3.00;1.42;;;18.20;99.90;;;18.57;78.44;97368.56;5040055;28;20061;-49
2022/06/27 04:06:46;;;;;;;2.05;1.20;;;18.20;99.90;;;18.60;78.38;97384.28;5040556;28;20055;-48
2022/06/27 04:09:14;;;;;;;3.60;1.40;;;18.30;99.90;;;18.59;78.05;97396.13;5040126;28;20055;-47
2022/06/27 04:11:43;;;;;;;4.32;1.40;;;18.20;99.90;;;18.62;77.85;97402.94;5038888;28;20060;-47
2022/06/27 04:14:15;;;;;;;1.90;1.38;;;18.20;99.90;;;18.58;77.79;97399.84;5040898;28;20064;-46
2022/06/27 04:17:01;;;;;;;2.58;1.38;;;18.20;99.90;;;18.60;77.63;97389.66;5050330;28;20044;-45
2022/06/27 04:19:58;;;;;;;3.65;1.23;;;18.20;99.90;;;18.63;77.83;97367.66;5079013;28;20052;-49
2022/06/27 04:22:39;;;;;;;2.90;1.27;;;18.30;99.90;;;18.67;77.62;97374.28;5044666;28;20049;-45
2022/06/27 04:25:25;;;;;;;1.33;1.10;;;18.30;99.90;;;18.68;77.51;97357.03;5049718;28;20056;-47
2022/06/27 04:27:52;;;;;;;1.80;1.35;;;18.40;99.90;;;18.69;77.57;97342.53;5043674;28;20057;-48
2022/06/27 04:30:20;;;;;;;1.85;1.33;;;18.50;99.90;;;18.76;77.41;97337.06;5044664;28;20053;-48
2022/06/27 04:32:49;;;;;;;3.25;1.30;;;18.50;99.90;;;18.81;77.37;97347.22;5045099;28;20041;-47
2022/06/27 04:35:17;;;;;;;2.67;1.30;;;18.50;99.90;;;18.85;77.25;97326.88;5045477;28;20049;-47
2022/06/27 04:37:47;;;;;;;3.53;1.20;;;18.50;99.90;;;18.90;77.09;97318.91;5060669;28;20050;-47
2022/06/27 04:40:41;;;;;;;3.05;1.48;;;18.60;99.90;;;18.94;77.04;97320.16;5043983;28;20278;-46
2022/06/27 04:43:11;;;;;;;2.25;1.60;;;18.60;99.90;;;18.94;77.04;97338.19;5060901;28;20059;-47
2022/06/27 04:45:39;;;;;;;2.63;1.40;;;18.60;99.90;;;18.93;77.10;97329.28;5043879;28;20053;-48
2022/06/27 04:48:37;;;;;;;5.35;1.50;;;18.60;99.90;;;18.88;76.89;97338.03;5059515;28;20053;-46
2022/06/27 04:51:06;;;;;;;1.83;1.45;;;18.50;99.90;;;18.88;76.71;97339.88;5044693;28;20045;-49
2022/06/27 04:53:35;;;;;;;1.88;1.27;;;18.50;99.90;;;18.94;77.14;97340.88;5044082;28;20049;-46
2022/06/27 04:56:03;;;;;;;3.28;1.45;;;18.60;99.90;;;18.94;77.12;97349.81;5060389;28;20049;-47
2022/06/27 04:58:31;;;;;;;2.67;1.25;;;18.60;99.90;;;18.93;76.88;97364.34;5044320;28;20339;-48
2022/06/27 05:01:01;;;;;;;6.32;1.70;;;18.60;99.90;;;18.96;76.92;97371.16;5060558;28;20052;-47
2022/06/27 05:03:47;;;;;;;1.65;1.20;;;18.60;99.90;;;18.98;76.68;97401.41;5046921;28;20393;-46
2022/06/27 05:06:20;;;;;;;4.73;1.50;;;18.70;99.90;;;18.80;77.18;97402.19;5043755;28;20049;-46
2022/06/27 05:08:47;;;;;;;4.03;1.92;;;18.50;99.90;;;18.83;77.14;97434.94;5043007;28;20057;-48
2022/06/27 05:11:16;;;;;;;1.98;1.42;;;18.50;99.90;;;18.70;77.66;97441.22;5042863;28;20059;-48
2022/06/27 05:13:44;;;;;;;2.17;1.65;;;18.30;99.90;;;18.67;77.80;97446.25;5044339;28;20081;-47
2022/06/27 05:16:24;;;;;;;3.10;1.25;;;18.30;99.90;;;18.68;77.77;97445.19;5043703;28;20348;-47
2022/06/27 05:18:53;;;;;;;3.25;1.80;;;18.30;99.90;;;18.68;78.03;97431.72;5043024;28;20046;-46
2022/06/27 05:21:42;;;;;;;2.38;1.60;;;18.40;99.90;;;18.65;77.89;97438.38;5042831;28;20049;-48
2022/06/27 05:24:11;;;;;;;2.63;1.52;;;18.40;99.90;;;18.68;77.91;97440.63;5043431;28;20352;-51
2022/06/27 05:26:40;;;;;;;2.80;1.23;;;18.40;99.90;;;18.57;78.18;97443.19;5042412;28;20057;-46
2022/06/27 05:29:08;;;;;;;2.33;1.73;;;18.30;99.90;;;18.64;78.13;97460.97;5042974;28;20348;-46
2022/06/27 05:31:36;;;;;;;2.28;1.42;;;18.40;99.90;;;18.76;78.01;97463.78;5043586;28;20067;-46
2022/06/27 05:34:04;;;;;;;1.85;1.40;;;18.60;99.90;;;18.64;78.14;97479.84;5042590;28;20047;-47
2022/06/27 05:36:32;;;;;;;3.35;1.20;;;18.50;99.90;;;18.64;78.39;97487.94;5043929;28;20041;-46
2022/06/27 05:39:01;;;;;;;2.38;1.40;;;18.50;99.90;;;18.56;78.80;97492.78;5043189;28;20049;-46
2022/06/27 05:41:29;;;;;;;2.13;1.30;;;18.40;99.90;;;18.59;78.64;97482.38;5043619;28;20076;-47
2022/06/27 05:44:04;;;;;;;2.65;1.67;;;18.50;99.90;;;18.69;78.46;97490.81;5042364;28;20059;-47
2022/06/27 05:46:34;;;;;;;2.35;1.30;;;18.60;99.90;;;18.48;79.04;97483.88;5043148;28;20053;-49
2022/06/27 05:49:30;;;;;;;3.53;2.08;;;18.50;99.90;;;18.51;79.22;97485.31;5029701;28;20053;-48
2022/06/27 05:52:00;;;;;;;2.58;1.38;;;18.40;99.90;;;18.56;79.15;97493.59;5042240;28;20064;-48
2022/06/27 05:54:29;;;;;;;3.78;1.35;;;18.50;99.90;;;18.56;79.12;97506.25;5042901;28;20041;-49
2022/06/27 05:56:58;;;;;;;2.60;1.40;;;18.50;99.90;;;18.55;79.24;97509.97;5043592;28;20045;-47
2022/06/27 05:59:26;;;;;;;2.65;1.80;;;18.40;99.90;;;18.49;79.42;97515.19;5042151;28;20049;-47
2022/06/27 06:01:59;;;;;;;3.72;2.10;;;18.40;99.90;;;18.45;79.15;97513.13;5041858;28;20255;-47
2022/06/27 06:04:30;;;;;;;1.63;1.33;;;18.30;99.90;;;18.45;79.33;97507.75;5059175;28;20049;-46
2022/06/27 06:07:00;;;;;;;1.80;1.55;;;18.30;99.90;;;18.42;79.23;97508.19;5043007;28;20053;-47
2022/06/27 06:09:28;;;;;;;1.70;1.30;;;18.30;99.90;;;18.44;79.26;97523.09;5057878;28;20057;-47
2022/06/27 06:11:56;;;;;;;2.40;1.70;;;18.30;99.90;;;18.39;79.37;97524.78;5042365;28;20049;-47
2022/06/27 06:14:28;;;;;;;4.38;1.50;;;18.30;99.90;;;18.35;79.40;97526.25;5042401;28;20049;-47
2022/06/27 06:16:57;;;;;;;1.75;1.60;;;18.20;99.90;;;18.19;79.80;97528.38;5042356;28;20045;-46
2022/06/27 06:19:25;;;;;;;2.08;1.83;;;18.10;99.90;;;18.19;80.01;97519.47;5042404;28;20045;-48
2022/06/27 06:21:53;;;;;;;2.70;2.13;;;18.10;99.90;;;18.23;79.84;97507.22;5058782;28;20049;-48
2022/06/27 06:24:21;;;;;;;4.95;1.98;;;18.10;99.90;;;18.08;80.39;97521.75;5058967;28;20053;-46
2022/06/27 06:26:52;;;;;;;1.98;1.67;;;17.90;99.90;;;18.24;79.93;97507.00;5059158;28;20057;-52
2022/06/27 06:29:21;;;;;;;2.60;1.75;;;18.10;99.90;;;18.36;79.75;97514.41;5057444;28;20061;-47
2022/06/27 06:31:56;;;;;;;3.15;1.92;;;18.20;99.90;;;18.37;79.88;97527.66;5041043;28;20356;-45
2022/06/27 06:34:32;;;;;;;4.07;1.85;;;18.30;99.90;;;18.45;79.71;97532.00;5042041;28;20067;-45
2022/06/27 06:37:01;;;;;;;4.63;1.80;;;18.40;99.90;;;18.55;79.46;97536.94;5057563;28;20049;-46
2022/06/27 06:39:29;;;;;;;2.95;1.90;;;18.40;99.90;;;18.55;79.33;97536.94;5040984;28;20055;-46
2022/06/27 06:41:57;;;;;;;2.95;2.45;;;18.40;99.90;;;18.68;79.01;97539.56;5042397;28;20244;-51
2022/06/27 06:44:26;;;;;;;3.40;2.55;;;18.50;99.90;;;18.56;79.39;97539.41;5041010;28;20060;-48
2022/06/27 06:47:14;;;;;;;3.13;2.05;;;18.40;99.90;;;18.55;79.53;97534.22;5058596;28;20255;-46
2022/06/27 06:49:48;;;;;;;6.20;2.28;;;18.40;99.90;;;18.56;79.51;97533.19;5041838;28;20376;-47
2022/06/27 06:52:17;;;;;;;2.72;2.03;;;18.30;99.90;;;18.49;79.64;97527.81;5043351;28;20046;-51
2022/06/27 06:54:46;;;;;;;3.40;2.33;;;18.30;99.90;;;18.59;79.90;97528.22;5042281;28;20048;-50
2022/06/27 06:57:18;;;;;;;2.13;1.88;;;18.40;99.90;;;18.66;79.58;97531.69;5042304;28;20047;-48
2022/06/27 06:59:46;;;;;;;2.25;1.90;;;18.50;99.90;;;18.73;79.28;97537.06;5042103;28;20045;-45
2022/06/27 07:02:14;;;;;;;2.35;2.10;;;18.60;99.90;;;18.77;79.37;97551.75;5042687;28;20050;-45
2022/06/27 07:04:42;;;;;;;3.55;2.47;;;18.60;99.90;;;18.83;79.22;97544.69;5042004;28;20061;-47
2022/06/27 07:07:10;;;;;;;3.28;2.25;;;18.70;99.90;;;18.85;79.18;97551.53;5042393;28;20053;-48
2022/06/27 07:09:38;;;;;;;2.88;2.22;;;18.80;99.90;;;18.88;79.01;97556.50;5042030;28;20055;-46
2022/06/27 07:12:08;;;;;;;2.83;2.08;;;18.70;99.90;;;18.93;79.09;97555.84;5041936;28;20053;-46
2022/06/27 07:14:36;;;;;;;3.08;2.72;;;18.80;99.90;;;18.74;79.10;97557.56;5042409;28;20065;-49
2022/06/27 07:17:04;;;;;;;2.60;2.22;;;18.60;99.90;;;18.85;79.06;97562.31;5042914;28;20053;-49
2022/06/27 07:19:33;;;;;;;2.85;2.38;;;18.70;99.90;;;18.97;78.79;97567.84;5042492;28;20049;-45
2022/06/27 07:22:01;;;;;;;3.53;2.17;;;18.80;99.90;;;19.00;78.66;97561.19;5042166;28;20055;-44
2022/06/27 07:24:30;;;;;;;2.45;2.20;;;18.80;99.90;;;19.08;78.52;97560.94;5042034;28;20055;-45
2022/06/27 07:26:59;;;;;;;2.83;2.45;;;18.90;99.90;;;19.12;78.51;97548.66;5042129;28;20053;-49
2022/06/27 07:29:27;;;;;;;4.00;2.30;;;19.00;99.90;;;19.10;78.46;97539.16;5041656;28;20056;-48
2022/06/27 07:31:54;;;;;;;3.97;2.78;;;18.90;99.90;;;19.19;78.69;97540.50;5041985;28;20362;-46
2022/06/27 07:34:23;;;;;;;3.45;2.70;;;19.00;99.90;;;19.32;78.63;97539.59;5042196;28;20041;-45
2022/06/27 07:36:53;;;;;;;3.45;2.42;;;19.20;99.90;;;19.43;78.33;97544.28;5041683;28;20054;-46
2022/06/27 07:39:21;;;;;;;3.13;2.13;;;19.30;99.90;;;19.28;78.45;97561.63;5041694;28;20045;-48
2022/06/27 07:41:49;;;;;;;3.85;2.50;;;19.20;99.90;;;19.42;78.17;97558.81;5042458;28;20053;-45
2022/06/27 07:44:17;;;;;;;3.53;2.28;;;19.30;99.90;;;19.43;77.98;97564.00;5041768;28;20378;-46
2022/06/27 07:46:45;;;;;;;3.63;2.50;;;19.40;99.90;;;19.47;78.18;97581.41;5041443;28;20049;-47
2022/06/27 07:49:13;;;;;;;3.20;2.50;;;19.40;99.90;;;19.58;77.69;97593.38;5041738;28;20217;-49
2022/06/27 07:51:41;;;;;;;2.60;2.28;;;19.50;99.90;;;19.54;77.80;97594.88;5045577;28;20051;-47
2022/06/27 07:54:10;;;;;;;3.72;2.30;;;19.50;99.90;;;19.52;77.48;97604.22;5045553;28;20049;-48
2022/06/27 07:56:40;;;;;;;2.67;2.35;;;19.40;99.90;;;19.48;77.42;97614.63;5045830;28;20046;-48
2022/06/27 07:59:28;;;;;;;2.63;2.22;;;19.30;99.90;;;19.34;77.77;97613.91;5045808;28;20079;-45
2022/06/27 08:01:56;;;;;;;4.65;2.50;;;19.20;99.90;;;19.40;77.86;97621.13;5045831;28;20389;-47
2022/06/27 08:04:24;;;;;;;3.17;2.72;;;19.20;99.90;;;19.38;77.79;97625.91;5045610;28;20053;-46
2022/06/27 08:06:53;;;;;;;4.22;2.83;;;19.20;99.90;;;19.46;77.48;97632.91;5046368;28;20049;-44
2022/06/27 08:09:22;;;;;;;2.78;2.25;;;19.30;99.90;;;19.18;78.29;97636.84;5045079;28;20049;-46
2022/06/27 08:11:51;;;;;;;2.13;1.90;;;19.10;99.90;;;19.33;78.14;97638.41;5044910;28;20348;-47
2022/06/27 08:14:19;;;;;;;2.72;1.60;;;19.20;99.90;;;19.27;78.03;97630.16;5031787;28;20252;-48
2022/06/27 08:16:51;;;;;;;1.63;1.30;;;19.10;99.90;;;19.18;78.10;97623.34;5025769;28;20049;-49
2022/06/27 08:19:20;;;;;;;3.17;1.52;;;19.10;99.90;;;19.32;77.78;97621.38;5025372;28;20057;-47
2022/06/27 08:21:48;;;;;;;1.80;1.40;;;19.10;99.90;;;19.33;77.90;97624.91;5025978;28;20050;-46
2022/06/27 08:24:17;;;;;;;1.60;1.50;;;19.20;99.90;;;19.37;77.54;97628.84;5025210;28;20046;-45
2022/06/27 08:26:46;;;;;;;1.83;1.50;;;19.20;99.90;;;19.41;77.65;97638.16;5026318;28;20066;-46
2022/06/27 08:29:15;;;;;;;3.10;1.52;;;19.40;99.90;;;19.52;77.73;97642.03;5025140;28;20046;-46
2022/06/27 08:31:44;;;;;;;2.70;1.60;;;19.50;99.90;;;19.61;77.44;97635.31;5025376;28;20076;-49
2022/06/27 08:34:13;;;;;;;1.90;1.70;;;19.70;99.90;;;19.73;77.09;97640.84;5025038;28;20358;-47
2022/06/27 08:36:41;;;;;;;1.98;1.60;;;19.80;99.90;;;19.79;76.79;97637.28;5025344;28;20042;-46
2022/06/27 08:39:15;;;;;;;2.00;1.80;;;19.90;99.90;;;19.81;76.38;97645.97;5024885;28;20120;-47
2022/06/27 08:41:46;;;;;;;1.60;1.50;;;19.80;99.90;;;19.75;76.07;97647.69;5025684;28;20235;-45
2022/06/27 08:44:16;;;;;;;2.28;1.88;;;19.70;99.90;;;19.82;76.16;97642.25;5024275;28;20056;-47
2022/06/27 08:46:47;;;;;;;2.15;1.77;;;19.70;99.90;;;19.84;76.08;97650.97;5025262;28;20053;-48
2022/06/27 08:49:16;;;;;;;2.85;1.60;;;19.80;99.90;;;19.71;75.99;97656.44;5025070;28;20045;-50
2022/06/27 08:51:45;;;;;;;1.90;1.77;;;19.70;99.90;;;19.77;75.85;97659.09;5025297;28;20264;-47
2022/06/27 08:54:13;;;;;;;2.20;2.00;;;19.80;99.90;;;19.63;76.25;97666.44;5024794;28;20054;-46
2022/06/27 08:56:42;;;;;;;2.50;1.83;;;19.60;99.90;;;19.62;76.13;97669.38;5024809;28;20056;-46
2022/06/27 08:59:09;;;;;;;2.67;2.15;;;19.60;99.90;;;19.64;76.06;97667.28;5024646;28;20061;-48
2022/06/27 09:01:40;;;;;;;2.67;1.90;;;19.60;99.90;;;19.66;76.09;97663.31;5023562;28;20048;-45
2022/06/27 09:04:09;;;;;;;3.38;1.98;;;19.60;99.90;;;19.76;75.84;97659.34;5024496;28;20041;-50
2022/06/27 09:06:44;;;;;;;2.28;2.03;;;19.70;99.90;;;19.76;75.26;97653.94;5024697;28;20356;-46
2022/06/27 09:09:15;;;;;;;2.40;2.20;;;19.80;99.90;;;19.72;74.94;97666.22;5024235;28;20060;-47
2022/06/27 09:11:46;;;;;;;3.13;2.83;;;19.70;99.90;;;19.71;74.69;97661.81;5023929;28;20056;-49
2022/06/27 09:14:41;;;;;;;3.10;2.53;;;19.70;99.90;;;19.55;74.71;97665.91;5024983;28;20066;-47
2022/06/27 09:17:15;;;;;;;2.97;2.65;;;19.60;99.90;;;19.73;74.96;97676.78;5024585;28;20060;-44
2022/06/27 09:19:50;;;;;;;3.08;2.80;;;19.80;99.90;;;19.76;73.60;97676.38;5024830;28;20064;-48
2022/06/27 09:22:21;;;;;;;2.83;2.50;;;20.00;99.90;;;19.69;74.23;97675.53;5024553;28;20374;-46
2022/06/27 09:25:09;;;;;;;3.30;2.80;;;19.80;99.90;;;19.95;74.35;97673.72;5024804;28;20049;-46
2022/06/27 09:27:50;;;;;;;3.65;3.35;;;20.00;99.90;;;19.72;73.12;97671.63;5023918;28;20076;-47
2022/06/27 09:30:18;;;;;;;3.83;3.53;;;19.90;99.90;;;19.72;73.97;97674.34;5039575;28;20050;-47
2022/06/27 09:32:51;;;;;;;4.55;3.78;;;19.70;99.90;;;19.67;73.77;97675.75;5024238;28;20363;-45
2022/06/27 09:35:24;;;;;;;3.72;3.42;;;19.70;99.90;;;19.81;73.91;97656.78;5023910;28;20048;-46
2022/06/27 09:37:56;;;;;;;3.90;3.38;;;19.80;99.90;;;19.84;73.73;97649.06;5024330;28;20243;-47
2022/06/27 09:40:27;;;;;;;8.75;3.90;;;19.80;99.90;;;19.95;73.25;97639.44;5022922;28;20099;-45
2022/06/27 09:43:04;;;;;;;4.30;3.60;;;20.00;99.90;;;20.01;73.07;97653.94;5023972;28;20060;-47
2022/06/27 09:45:33;;;;;;;3.97;3.50;;;20.10;99.90;;;20.15;72.82;97663.56;5023836;28;20089;-50
2022/06/27 09:48:06;;;;;;;3.45;3.15;;;20.30;99.90;;;20.13;72.83;97652.16;5023034;28;20053;-47
2022/06/27 09:50:39;;;;;;;3.70;3.40;;;20.30;99.90;;;20.20;72.67;97660.19;5024226;28;20357;-47
2022/06/27 09:53:08;;;;;;;3.83;3.35;;;20.40;99.90;;;20.24;73.08;97667.66;5023942;28;20049;-51
2022/06/27 09:55:39;;;;;;;5.20;3.80;;;20.40;99.90;;;20.19;72.38;97680.16;5023502;28;20045;-46
2022/06/27 09:58:10;;;;;;;4.45;4.05;;;20.50;99.90;;;20.23;72.23;97681.38;5022424;28;20056;-48
2022/06/27 10:00:41;;;;;;;4.00;3.40;;;20.50;99.90;;;20.36;71.65;97696.66;5023774;28;20072;-47
2022/06/27 10:03:09;;;;;;;3.40;3.03;;;20.60;99.90;;;20.28;70.94;97692.38;5023709;28;20052;-45
2022/06/27 10:05:44;;;;;;;3.40;3.10;;;20.60;99.90;;;20.32;71.11;97696.28;5023760;28;20053;-48
2022/06/27 10:08:14;;;;;;;3.78;3.10;;;20.70;99.90;;;20.49;70.43;97704.63;5023692;28;20050;-46
2022/06/27 10:11:14;;;;;;;4.00;3.60;;;20.80;99.90;;;20.54;70.57;97717.47;5023313;28;20599;-45
2022/06/27 10:14:04;;;;;;;3.47;3.17;;;21.00;99.90;;;20.83;71.15;97721.38;5021355;28;20152;-48
2022/06/27 10:16:33;;;;;;;3.15;2.60;;;21.10;99.90;;;20.95;69.93;97724.16;5023273;28;20040;-48
2022/06/27 10:19:03;;;;;;;2.95;2.47;;;21.40;99.90;;;20.99;68.14;97733.47;5023174;28;20048;-44
2022/06/27 10:21:42;;;;;;;3.75;3.00;;;21.50;99.90;;;21.07;68.72;97749.38;5024081;28;20046;-44
2022/06/27 10:24:18;;;;;;;3.35;3.05;;;21.50;99.90;;;20.85;68.30;97747.13;5023121;28;20053;-44
2022/06/27 10:26:52;;;;;;;3.58;2.45;;;21.30;99.90;;;20.78;68.93;97759.94;5023107;28;20050;-44
2022/06/27 10:29:28;;;;;;;;;;;21.10;99.90;;;20.74;68.74;97758.69;5023987;28;20060;-46
2022/06/27 10:31:57;;;;;;;3.83;2.70;;;21.00;99.90;;;20.79;68.79;97753.44;5023668;28;19924;-46
2022/06/27 10:34:40;;;;;;;3.35;2.78;;;21.10;99.90;;;20.57;67.67;97757.59;5023428;28;20083;-47
2022/06/27 10:37:24;;;;;;;2.58;2.38;;;20.90;99.90;;;20.43;67.75;97760.44;5023029;28;20041;-49
2022/06/27 10:40:20;;;;;;;2.78;2.30;;;20.80;99.90;;;20.49;68.13;97756.03;5022811;28;20052;-47